DAL1331 KSFO-KSLC
Flight info
| Callsign | DAL1331 |
|---|---|
| Flight time | 1h 19m |
| Altitude | 41000 |
| Route | TRUKN2 MOGEE Q124 BVL BVL2 |
| Aircraft | A359/H-SDE2E3GHIJ3J4J5LM1ORWXY/LB1D1 |
Departure
| Time | 2026-05-08 05:19 |
|---|---|
| Airport | San Francisco International Airport (KSFO) |
Arrival
| Time | 2026-05-08 06:38 |
|---|---|
| Airport | Salt Lake City International Airport (KSLC) |
| Time | Latitude | Longitude | Altitude | Speed | Heading |
|---|---|---|---|---|---|
| 2026-05-08 04:54 | 37.61928 | -122.39321 | 24 ft | 0 kts | 208° |
| 2026-05-08 05:01 | 37.61912 | -122.39332 | 24 ft | 4 kts | 208° |
| 2026-05-08 05:01 | 37.61887 | -122.39347 | 24 ft | 4 kts | 208° |
| 2026-05-08 05:01 | 37.61883 | -122.39351 | 24 ft | 1 kts | 208° |
| 2026-05-08 05:01 | 37.61910 | -122.39333 | 24 ft | 0 kts | 208° |
| 2026-05-08 05:04 | 37.61910 | -122.39332 | 24 ft | 1 kts | 208° |
| 2026-05-08 05:05 | 37.61924 | -122.39324 | 29 ft | 3 kts | 208° |
| 2026-05-08 05:05 | 37.61942 | -122.39312 | 24 ft | 3 kts | 208° |
| 2026-05-08 05:05 | 37.61957 | -122.39302 | 24 ft | 3 kts | 209° |
| 2026-05-08 05:05 | 37.61973 | -122.39289 | 24 ft | 3 kts | 224° |
| 2026-05-08 05:06 | 37.61984 | -122.39274 | 27 ft | 3 kts | 249° |
| 2026-05-08 05:06 | 37.61988 | -122.39263 | 24 ft | 3 kts | 269° |
| 2026-05-08 05:06 | 37.61983 | -122.39238 | 24 ft | 3 kts | 305° |
| 2026-05-08 05:06 | 37.61975 | -122.39224 | 23 ft | 3 kts | 310° |
| 2026-05-08 05:07 | 37.61962 | -122.39205 | 23 ft | 4 kts | 306° |
| 2026-05-08 05:07 | 37.61955 | -122.39191 | 23 ft | 3 kts | 298° |
| 2026-05-08 05:09 | 37.61963 | -122.39212 | 23 ft | 7 kts | 298° |
| 2026-05-08 05:09 | 37.62005 | -122.39242 | 26 ft | 8 kts | 355° |
| 2026-05-08 05:09 | 37.62065 | -122.39212 | 22 ft | 11 kts | 27° |
| 2026-05-08 05:10 | 37.62148 | -122.39158 | 22 ft | 15 kts | 27° |
| 2026-05-08 05:10 | 37.62250 | -122.39005 | 22 ft | 13 kts | 72° |
| 2026-05-08 05:10 | 37.62261 | -122.38914 | 21 ft | 11 kts | 101° |
| 2026-05-08 05:11 | 37.62221 | -122.38809 | 21 ft | 15 kts | 118° |
| 2026-05-08 05:11 | 37.62168 | -122.38684 | 23 ft | 17 kts | 118° |
| 2026-05-08 05:11 | 37.62114 | -122.38555 | 25 ft | 17 kts | 117° |
| 2026-05-08 05:11 | 37.62059 | -122.38422 | 27 ft | 17 kts | 118° |
| 2026-05-08 05:12 | 37.62005 | -122.38295 | 29 ft | 16 kts | 118° |
| 2026-05-08 05:12 | 37.61954 | -122.38172 | 28 ft | 18 kts | 117° |
| 2026-05-08 05:12 | 37.61901 | -122.38047 | 28 ft | 16 kts | 118° |
| 2026-05-08 05:12 | 37.61845 | -122.37913 | 29 ft | 18 kts | 116° |
| 2026-05-08 05:13 | 37.61798 | -122.37764 | 24 ft | 19 kts | 111° |
| 2026-05-08 05:13 | 37.61752 | -122.37615 | 26 ft | 17 kts | 111° |
| 2026-05-08 05:13 | 37.61701 | -122.37468 | 26 ft | 20 kts | 118° |
| 2026-05-08 05:13 | 37.61644 | -122.37333 | 29 ft | 16 kts | 118° |
| 2026-05-08 05:14 | 37.61587 | -122.37196 | 29 ft | 19 kts | 117° |
| 2026-05-08 05:14 | 37.61524 | -122.37047 | 29 ft | 16 kts | 118° |
| 2026-05-08 05:14 | 37.61470 | -122.36935 | 27 ft | 16 kts | 128° |
| 2026-05-08 05:14 | 37.61401 | -122.36833 | 31 ft | 14 kts | 130° |
| 2026-05-08 05:15 | 37.61340 | -122.36717 | 27 ft | 18 kts | 118° |
| 2026-05-08 05:15 | 37.61280 | -122.36575 | 23 ft | 18 kts | 118° |
| 2026-05-08 05:15 | 37.61219 | -122.36430 | 27 ft | 19 kts | 118° |
| 2026-05-08 05:15 | 37.61160 | -122.36291 | 24 ft | 17 kts | 118° |
| 2026-05-08 05:16 | 37.61114 | -122.36180 | 27 ft | 13 kts | 118° |
| 2026-05-08 05:16 | 37.61071 | -122.36078 | 26 ft | 14 kts | 118° |
| 2026-05-08 05:16 | 37.61049 | -122.35989 | 26 ft | 9 kts | 88° |
| 2026-05-08 05:16 | 37.61085 | -122.35916 | 26 ft | 11 kts | 34° |
| 2026-05-08 05:17 | 37.61147 | -122.35876 | 25 ft | 9 kts | 27° |
| 2026-05-08 05:17 | 37.61187 | -122.35885 | 26 ft | 6 kts | 313° |
| 2026-05-08 05:17 | 37.61196 | -122.35904 | 25 ft | 0 kts | 298° |
| 2026-05-08 05:18 | 37.61205 | -122.35926 | 25 ft | 14 kts | 298° |
| 2026-05-08 05:18 | 37.61376 | -122.36331 | 19 ft | 90 kts | 298° |
| 2026-05-08 05:18 | 37.61776 | -122.37279 | 28 ft | 153 kts | 298° |
| 2026-05-08 05:19 | 37.62291 | -122.38515 | 718 ft | 155 kts | 296° |
| 2026-05-08 05:19 | 37.62784 | -122.39720 | 1579 ft | 152 kts | 295° |
| 2026-05-08 05:19 | 37.63550 | -122.40627 | 2331 ft | 157 kts | 333° |
| 2026-05-08 05:19 | 37.64649 | -122.40648 | 2819 ft | 166 kts | 17° |
| 2026-05-08 05:20 | 37.65549 | -122.39715 | 3267 ft | 177 kts | 51° |
| 2026-05-08 05:20 | 37.66171 | -122.38291 | 3520 ft | 195 kts | 62° |
| 2026-05-08 05:20 | 37.66741 | -122.36625 | 3721 ft | 218 kts | 64° |
| 2026-05-08 05:20 | 37.67369 | -122.34800 | 3976 ft | 240 kts | 64° |
| 2026-05-08 05:21 | 37.68051 | -122.32786 | 4287 ft | 259 kts | 65° |
| 2026-05-08 05:21 | 37.68764 | -122.30637 | 4778 ft | 269 kts | 66° |
| 2026-05-08 05:21 | 37.69488 | -122.28431 | 5354 ft | 275 kts | 66° |
| 2026-05-08 05:21 | 37.70225 | -122.26176 | 5945 ft | 280 kts | 66° |
| 2026-05-08 05:22 | 37.70973 | -122.23884 | 6542 ft | 284 kts | 66° |
| 2026-05-08 05:22 | 37.71898 | -122.21669 | 7121 ft | 287 kts | 52° |
| 2026-05-08 05:22 | 37.73346 | -122.19945 | 7740 ft | 287 kts | 35° |
| 2026-05-08 05:22 | 37.74985 | -122.18464 | 8329 ft | 290 kts | 33° |
| 2026-05-08 05:23 | 37.76648 | -122.16998 | 8902 ft | 294 kts | 33° |
| 2026-05-08 05:23 | 37.78335 | -122.15499 | 9489 ft | 297 kts | 34° |
| 2026-05-08 05:23 | 37.80010 | -122.13997 | 10068 ft | 300 kts | 34° |
| 2026-05-08 05:23 | 37.81739 | -122.12442 | 10423 ft | 312 kts | 34° |
| 2026-05-08 05:24 | 37.83543 | -122.10814 | 10687 ft | 325 kts | 34° |
| 2026-05-08 05:24 | 37.85425 | -122.09113 | 10946 ft | 338 kts | 34° |
| 2026-05-08 05:24 | 37.87367 | -122.07328 | 11187 ft | 351 kts | 36° |
| 2026-05-08 05:24 | 37.89157 | -122.05159 | 11456 ft | 362 kts | 47° |
| 2026-05-08 05:25 | 37.90816 | -122.02727 | 11857 ft | 367 kts | 49° |
| 2026-05-08 05:25 | 37.92478 | -122.00246 | 12286 ft | 371 kts | 49° |
| 2026-05-08 05:25 | 37.94160 | -121.97746 | 12736 ft | 374 kts | 48° |
| 2026-05-08 05:25 | 37.95839 | -121.95258 | 13202 ft | 376 kts | 49° |
| 2026-05-08 05:26 | 37.97543 | -121.92736 | 13678 ft | 378 kts | 49° |
| 2026-05-08 05:26 | 37.99254 | -121.90203 | 14117 ft | 380 kts | 49° |
| 2026-05-08 05:26 | 38.00983 | -121.87643 | 14578 ft | 382 kts | 49° |
| 2026-05-08 05:26 | 38.02715 | -121.85078 | 15029 ft | 383 kts | 49° |
| 2026-05-08 05:27 | 38.04458 | -121.82494 | 15465 ft | 386 kts | 49° |
| 2026-05-08 05:27 | 38.06206 | -121.79903 | 15889 ft | 388 kts | 49° |
| 2026-05-08 05:27 | 38.07963 | -121.77295 | 16347 ft | 389 kts | 49° |
| 2026-05-08 05:27 | 38.09732 | -121.74668 | 16770 ft | 392 kts | 49° |
| 2026-05-08 05:28 | 38.11504 | -121.72030 | 17189 ft | 394 kts | 49° |
| 2026-05-08 05:28 | 38.13265 | -121.69410 | 17611 ft | 396 kts | 49° |
| 2026-05-08 05:28 | 38.15055 | -121.66746 | 18034 ft | 397 kts | 49° |
| 2026-05-08 05:28 | 38.16855 | -121.64065 | 18423 ft | 400 kts | 49° |
| 2026-05-08 05:29 | 38.18665 | -121.61369 | 18810 ft | 403 kts | 49° |
| 2026-05-08 05:29 | 38.20489 | -121.58644 | 19200 ft | 405 kts | 49° |
| 2026-05-08 05:29 | 38.22319 | -121.55911 | 19568 ft | 407 kts | 49° |
| 2026-05-08 05:29 | 38.24162 | -121.53152 | 19932 ft | 410 kts | 49° |
| 2026-05-08 05:30 | 38.26014 | -121.50381 | 20307 ft | 412 kts | 49° |
| 2026-05-08 05:30 | 38.27873 | -121.47600 | 20660 ft | 413 kts | 49° |
| 2026-05-08 05:30 | 38.29738 | -121.44803 | 20971 ft | 416 kts | 49° |
| 2026-05-08 05:30 | 38.31624 | -121.41974 | 21290 ft | 419 kts | 49° |
| 2026-05-08 05:31 | 38.33515 | -121.39135 | 21636 ft | 421 kts | 49° |
| 2026-05-08 05:31 | 38.35401 | -121.36272 | 21950 ft | 423 kts | 50° |
| 2026-05-08 05:31 | 38.37243 | -121.33341 | 22275 ft | 425 kts | 51° |
| 2026-05-08 05:31 | 38.39063 | -121.30364 | 22613 ft | 427 kts | 51° |
| 2026-05-08 05:32 | 38.40890 | -121.27357 | 22907 ft | 429 kts | 51° |
| 2026-05-08 05:32 | 38.42723 | -121.24348 | 23194 ft | 431 kts | 51° |
| 2026-05-08 05:32 | 38.44549 | -121.21368 | 23483 ft | 433 kts | 51° |
| 2026-05-08 05:32 | 38.46417 | -121.18333 | 23766 ft | 435 kts | 51° |
| 2026-05-08 05:33 | 38.48291 | -121.15291 | 24052 ft | 436 kts | 51° |
| 2026-05-08 05:33 | 38.50176 | -121.12234 | 24332 ft | 438 kts | 51° |
| 2026-05-08 05:33 | 38.52066 | -121.09171 | 24622 ft | 440 kts | 51° |
| 2026-05-08 05:33 | 38.53942 | -121.06128 | 24906 ft | 441 kts | 51° |
| 2026-05-08 05:34 | 38.55842 | -121.03042 | 25198 ft | 443 kts | 51° |
| 2026-05-08 05:34 | 38.57755 | -120.99931 | 25492 ft | 444 kts | 51° |
| 2026-05-08 05:34 | 38.59668 | -120.96816 | 25761 ft | 446 kts | 51° |
| 2026-05-08 05:34 | 38.61587 | -120.93687 | 26055 ft | 448 kts | 51° |
| 2026-05-08 05:35 | 38.63508 | -120.90553 | 26351 ft | 449 kts | 51° |
| 2026-05-08 05:35 | 38.65442 | -120.87396 | 26646 ft | 451 kts | 51° |
| 2026-05-08 05:35 | 38.67379 | -120.84231 | 26944 ft | 452 kts | 51° |
| 2026-05-08 05:35 | 38.69296 | -120.81095 | 27251 ft | 453 kts | 51° |
| 2026-05-08 05:36 | 38.71248 | -120.77898 | 27564 ft | 455 kts | 51° |
| 2026-05-08 05:36 | 38.73201 | -120.74695 | 27872 ft | 457 kts | 51° |
| 2026-05-08 05:36 | 38.75161 | -120.71479 | 28197 ft | 459 kts | 51° |
| 2026-05-08 05:36 | 38.77125 | -120.68250 | 28521 ft | 461 kts | 51° |
| 2026-05-08 05:37 | 38.79099 | -120.65000 | 28842 ft | 462 kts | 51° |
| 2026-05-08 05:37 | 38.81085 | -120.61731 | 29164 ft | 465 kts | 51° |
| 2026-05-08 05:37 | 38.83073 | -120.58456 | 29500 ft | 466 kts | 51° |
| 2026-05-08 05:37 | 38.85070 | -120.55162 | 29831 ft | 468 kts | 51° |
| 2026-05-08 05:38 | 38.87073 | -120.51857 | 30166 ft | 470 kts | 51° |
| 2026-05-08 05:38 | 38.89082 | -120.48536 | 30503 ft | 472 kts | 51° |
| 2026-05-08 05:38 | 38.91104 | -120.45190 | 30842 ft | 475 kts | 51° |
| 2026-05-08 05:38 | 38.93107 | -120.41876 | 31188 ft | 477 kts | 51° |
| 2026-05-08 05:39 | 38.95170 | -120.38458 | 31540 ft | 479 kts | 51° |
| 2026-05-08 05:39 | 38.97187 | -120.35109 | 31862 ft | 481 kts | 51° |
| 2026-05-08 05:39 | 38.99172 | -120.31810 | 32164 ft | 483 kts | 51° |
| 2026-05-08 05:39 | 39.01233 | -120.28383 | 32459 ft | 485 kts | 51° |
| 2026-05-08 05:40 | 39.03303 | -120.24935 | 32750 ft | 487 kts | 51° |
| 2026-05-08 05:40 | 39.05378 | -120.21475 | 33030 ft | 489 kts | 51° |
| 2026-05-08 05:40 | 39.07459 | -120.18001 | 33306 ft | 491 kts | 51° |
| 2026-05-08 05:40 | 39.09550 | -120.14508 | 33571 ft | 493 kts | 51° |
| 2026-05-08 05:41 | 39.11650 | -120.10997 | 33829 ft | 495 kts | 51° |
| 2026-05-08 05:41 | 39.13730 | -120.07514 | 34082 ft | 497 kts | 51° |
| 2026-05-08 05:41 | 39.15836 | -120.03984 | 34431 ft | 496 kts | 51° |
| 2026-05-08 05:41 | 39.17934 | -120.00462 | 34799 ft | 495 kts | 51° |
| 2026-05-08 05:42 | 39.20030 | -119.96940 | 35158 ft | 495 kts | 51° |
| 2026-05-08 05:42 | 39.22116 | -119.93428 | 35573 ft | 492 kts | 51° |
| 2026-05-08 05:42 | 39.24200 | -119.89917 | 35956 ft | 491 kts | 51° |
| 2026-05-08 05:42 | 39.26287 | -119.86401 | 36255 ft | 492 kts | 51° |
| 2026-05-08 05:43 | 39.28368 | -119.82892 | 36533 ft | 493 kts | 51° |
| 2026-05-08 05:43 | 39.30449 | -119.79382 | 36839 ft | 493 kts | 51° |
| 2026-05-08 05:43 | 39.32529 | -119.75867 | 37208 ft | 491 kts | 51° |
| 2026-05-08 05:43 | 39.34571 | -119.72412 | 37620 ft | 488 kts | 51° |
| 2026-05-08 05:44 | 39.36632 | -119.68919 | 38000 ft | 485 kts | 51° |
| 2026-05-08 05:44 | 39.38680 | -119.65447 | 38300 ft | 485 kts | 51° |
| 2026-05-08 05:44 | 39.40720 | -119.61981 | 38574 ft | 485 kts | 51° |
| 2026-05-08 05:44 | 39.42767 | -119.58504 | 38832 ft | 485 kts | 51° |
| 2026-05-08 05:45 | 39.44804 | -119.55038 | 39079 ft | 485 kts | 51° |
| 2026-05-08 05:45 | 39.46825 | -119.51595 | 39314 ft | 485 kts | 51° |
| 2026-05-08 05:45 | 39.48863 | -119.48117 | 39559 ft | 485 kts | 51° |
| 2026-05-08 05:45 | 39.50902 | -119.44633 | 39798 ft | 484 kts | 51° |
| 2026-05-08 05:46 | 39.52934 | -119.41156 | 40033 ft | 484 kts | 51° |
| 2026-05-08 05:46 | 39.54964 | -119.37680 | 40259 ft | 484 kts | 51° |
| 2026-05-08 05:46 | 39.56998 | -119.34196 | 40473 ft | 484 kts | 51° |
| 2026-05-08 05:46 | 39.59036 | -119.30700 | 40689 ft | 484 kts | 51° |
| 2026-05-08 05:47 | 39.61062 | -119.27223 | 40904 ft | 484 kts | 51° |
| 2026-05-08 05:47 | 39.63063 | -119.23783 | 41087 ft | 484 kts | 51° |
| 2026-05-08 05:47 | 39.65102 | -119.20276 | 41154 ft | 486 kts | 51° |
| 2026-05-08 05:48 | 39.69165 | -119.13273 | 41146 ft | 485 kts | 51° |
| 2026-05-08 05:48 | 39.73222 | -119.06265 | 41106 ft | 484 kts | 51° |
| 2026-05-08 05:49 | 39.77275 | -118.99248 | 41114 ft | 488 kts | 51° |
| 2026-05-08 05:49 | 39.81356 | -118.92172 | 41101 ft | 495 kts | 51° |
| 2026-05-08 05:50 | 39.85500 | -118.84966 | 41100 ft | 497 kts | 51° |
| 2026-05-08 05:50 | 39.89342 | -118.77451 | 41092 ft | 499 kts | 58° |
| 2026-05-08 05:51 | 39.92680 | -118.69500 | 41099 ft | 500 kts | 59° |
| 2026-05-08 05:51 | 39.95928 | -118.61493 | 41086 ft | 500 kts | 59° |
| 2026-05-08 05:52 | 39.99147 | -118.53522 | 41083 ft | 499 kts | 59° |
| 2026-05-08 05:52 | 40.02391 | -118.45503 | 41080 ft | 499 kts | 59° |
| 2026-05-08 05:53 | 40.05635 | -118.37478 | 41083 ft | 499 kts | 59° |
| 2026-05-08 05:53 | 40.08854 | -118.29498 | 41082 ft | 499 kts | 59° |
| 2026-05-08 05:54 | 40.12089 | -118.21456 | 41094 ft | 499 kts | 59° |
| 2026-05-08 05:54 | 40.14775 | -118.14763 | 41096 ft | 499 kts | 59° |
| 2026-05-08 05:55 | 40.17990 | -118.06729 | 41096 ft | 499 kts | 59° |
| 2026-05-08 05:55 | 40.20750 | -117.98361 | 41093 ft | 502 kts | 69° |
| 2026-05-08 05:56 | 40.22860 | -117.89714 | 41097 ft | 503 kts | 70° |
| 2026-05-08 05:56 | 40.24889 | -117.80931 | 41105 ft | 503 kts | 70° |
| 2026-05-08 05:57 | 40.26908 | -117.72146 | 41099 ft | 503 kts | 70° |
| 2026-05-08 05:57 | 40.28871 | -117.63642 | 41094 ft | 504 kts | 70° |
| 2026-05-08 05:58 | 40.30832 | -117.55138 | 41099 ft | 504 kts | 70° |
| 2026-05-08 05:58 | 40.32846 | -117.46383 | 41099 ft | 504 kts | 70° |
| 2026-05-08 05:59 | 40.34864 | -117.37569 | 41103 ft | 504 kts | 70° |
| 2026-05-08 05:59 | 40.36879 | -117.28737 | 41106 ft | 505 kts | 70° |
| 2026-05-08 06:00 | 40.38872 | -117.19962 | 41100 ft | 505 kts | 70° |
| 2026-05-08 06:00 | 40.40872 | -117.11122 | 41104 ft | 505 kts | 70° |
| 2026-05-08 06:01 | 40.42866 | -117.02273 | 41094 ft | 505 kts | 70° |
| 2026-05-08 06:01 | 40.44853 | -116.93421 | 41105 ft | 505 kts | 70° |
| 2026-05-08 06:02 | 40.46834 | -116.84562 | 41092 ft | 505 kts | 70° |
| 2026-05-08 06:02 | 40.48793 | -116.75761 | 41090 ft | 505 kts | 70° |
| 2026-05-08 06:03 | 40.50760 | -116.66895 | 41089 ft | 505 kts | 70° |
| 2026-05-08 06:03 | 40.52718 | -116.58033 | 41105 ft | 505 kts | 70° |
| 2026-05-08 06:04 | 40.54669 | -116.49165 | 41095 ft | 505 kts | 70° |
| 2026-05-08 06:04 | 40.56493 | -116.40235 | 41103 ft | 508 kts | 76° |
| 2026-05-08 06:05 | 40.57411 | -116.31049 | 41107 ft | 510 kts | 80° |
| 2026-05-08 06:05 | 40.58132 | -116.21759 | 41112 ft | 511 kts | 81° |
| 2026-05-08 06:06 | 40.58816 | -116.12455 | 41103 ft | 510 kts | 81° |
| 2026-05-08 06:06 | 40.59507 | -116.03153 | 41094 ft | 510 kts | 81° |
| 2026-05-08 06:07 | 40.60200 | -115.93865 | 41106 ft | 510 kts | 81° |
| 2026-05-08 06:07 | 40.60887 | -115.84616 | 41097 ft | 511 kts | 81° |
| 2026-05-08 06:08 | 40.61570 | -115.75308 | 41103 ft | 511 kts | 81° |
| 2026-05-08 06:08 | 40.62245 | -115.65980 | 41104 ft | 512 kts | 81° |
| 2026-05-08 06:09 | 40.62913 | -115.56655 | 41105 ft | 512 kts | 81° |
| 2026-05-08 06:09 | 40.63574 | -115.47297 | 41099 ft | 513 kts | 81° |
| 2026-05-08 06:10 | 40.64229 | -115.37936 | 41099 ft | 513 kts | 81° |
| 2026-05-08 06:10 | 40.64876 | -115.28579 | 41097 ft | 514 kts | 81° |
| 2026-05-08 06:11 | 40.65518 | -115.19196 | 41104 ft | 514 kts | 81° |
| 2026-05-08 06:11 | 40.66152 | -115.09806 | 41099 ft | 515 kts | 81° |
| 2026-05-08 06:12 | 40.66774 | -115.00465 | 41099 ft | 515 kts | 81° |
| 2026-05-08 06:12 | 40.67395 | -114.91042 | 41100 ft | 516 kts | 81° |
| 2026-05-08 06:13 | 40.68008 | -114.81621 | 41096 ft | 516 kts | 81° |
| 2026-05-08 06:13 | 40.68613 | -114.72187 | 41083 ft | 516 kts | 81° |
| 2026-05-08 06:14 | 40.69212 | -114.62745 | 41083 ft | 516 kts | 81° |
| 2026-05-08 06:14 | 40.69802 | -114.53314 | 41072 ft | 516 kts | 81° |
| 2026-05-08 06:15 | 40.70297 | -114.43949 | 41070 ft | 510 kts | 83° |
| 2026-05-08 06:15 | 40.70604 | -114.34644 | 41074 ft | 505 kts | 83° |
| 2026-05-08 06:16 | 40.70925 | -114.25415 | 41063 ft | 502 kts | 83° |
| 2026-05-08 06:16 | 40.71248 | -114.16274 | 40837 ft | 502 kts | 82° |
| 2026-05-08 06:16 | 40.71410 | -114.11680 | 40587 ft | 501 kts | 82° |
| 2026-05-08 06:17 | 40.71728 | -114.02499 | 40094 ft | 501 kts | 82° |
| 2026-05-08 06:17 | 40.71884 | -113.97908 | 39850 ft | 500 kts | 82° |
| 2026-05-08 06:17 | 40.72037 | -113.93327 | 39598 ft | 499 kts | 82° |
| 2026-05-08 06:18 | 40.72189 | -113.88760 | 39350 ft | 498 kts | 82° |
| 2026-05-08 06:18 | 40.72339 | -113.84191 | 39101 ft | 497 kts | 82° |
| 2026-05-08 06:18 | 40.72486 | -113.79633 | 38838 ft | 496 kts | 81° |
| 2026-05-08 06:18 | 40.72630 | -113.75097 | 38328 ft | 494 kts | 81° |
| 2026-05-08 06:19 | 40.72695 | -113.70626 | 37728 ft | 495 kts | 84° |
| 2026-05-08 06:19 | 40.72668 | -113.66076 | 37061 ft | 497 kts | 85° |
| 2026-05-08 06:19 | 40.72637 | -113.61508 | 36378 ft | 498 kts | 84° |
| 2026-05-08 06:19 | 40.72616 | -113.56946 | 35681 ft | 499 kts | 84° |
| 2026-05-08 06:20 | 40.72600 | -113.52365 | 34951 ft | 500 kts | 84° |
| 2026-05-08 06:20 | 40.72586 | -113.47776 | 34154 ft | 503 kts | 84° |
| 2026-05-08 06:20 | 40.72574 | -113.43145 | 33315 ft | 506 kts | 85° |
| 2026-05-08 06:20 | 40.72559 | -113.38480 | 32451 ft | 509 kts | 85° |
| 2026-05-08 06:21 | 40.72541 | -113.33810 | 31568 ft | 511 kts | 85° |
| 2026-05-08 06:21 | 40.72522 | -113.29115 | 30684 ft | 513 kts | 85° |
| 2026-05-08 06:21 | 40.72500 | -113.24428 | 30031 ft | 509 kts | 85° |
| 2026-05-08 06:21 | 40.72477 | -113.19774 | 29382 ft | 505 kts | 86° |
| 2026-05-08 06:22 | 40.72454 | -113.15158 | 28730 ft | 502 kts | 86° |
| 2026-05-08 06:22 | 40.72429 | -113.10574 | 28084 ft | 498 kts | 86° |
| 2026-05-08 06:22 | 40.72402 | -113.06020 | 27441 ft | 495 kts | 86° |
| 2026-05-08 06:22 | 40.72373 | -113.01489 | 26801 ft | 491 kts | 86° |
| 2026-05-08 06:23 | 40.72343 | -112.97055 | 26173 ft | 487 kts | 86° |
| 2026-05-08 06:23 | 40.72311 | -112.92613 | 25546 ft | 482 kts | 87° |
| 2026-05-08 06:23 | 40.72278 | -112.88195 | 24919 ft | 478 kts | 87° |
| 2026-05-08 06:23 | 40.72247 | -112.83835 | 24312 ft | 472 kts | 87° |
| 2026-05-08 06:24 | 40.72214 | -112.79525 | 23722 ft | 467 kts | 87° |
| 2026-05-08 06:24 | 40.72176 | -112.75264 | 23117 ft | 462 kts | 87° |
| 2026-05-08 06:24 | 40.72138 | -112.71048 | 22512 ft | 457 kts | 87° |
| 2026-05-08 06:24 | 40.72100 | -112.66934 | 21916 ft | 452 kts | 87° |
| 2026-05-08 06:25 | 40.72060 | -112.62801 | 21327 ft | 448 kts | 87° |
| 2026-05-08 06:25 | 40.72205 | -112.58726 | 20699 ft | 442 kts | 77° |
| 2026-05-08 06:25 | 40.73120 | -112.54923 | 20079 ft | 432 kts | 59° |
| 2026-05-08 06:25 | 40.74791 | -112.51722 | 19452 ft | 419 kts | 42° |
| 2026-05-08 06:26 | 40.77030 | -112.49398 | 18849 ft | 398 kts | 25° |
| 2026-05-08 06:26 | 40.79424 | -112.47791 | 18292 ft | 377 kts | 21° |
| 2026-05-08 06:26 | 40.81750 | -112.46346 | 17669 ft | 362 kts | 21° |
| 2026-05-08 06:26 | 40.83960 | -112.44966 | 17050 ft | 350 kts | 21° |
| 2026-05-08 06:27 | 40.86129 | -112.43602 | 16428 ft | 340 kts | 21° |
| 2026-05-08 06:27 | 40.88251 | -112.42371 | 15861 ft | 325 kts | 13° |
| 2026-05-08 06:27 | 40.90436 | -112.41889 | 15375 ft | 318 kts | 358° |
| 2026-05-08 06:27 | 40.92763 | -112.41863 | 14888 ft | 352 kts | 356° |
| 2026-05-08 06:28 | 40.95237 | -112.41912 | 14383 ft | 354 kts | 356° |
| 2026-05-08 06:28 | 40.97684 | -112.41819 | 13874 ft | 352 kts | 5° |
| 2026-05-08 06:28 | 41.00004 | -112.40771 | 13374 ft | 356 kts | 25° |
| 2026-05-08 06:28 | 41.01920 | -112.38707 | 12874 ft | 355 kts | 45° |
| 2026-05-08 06:29 | 41.03294 | -112.36371 | 12401 ft | 341 kts | 50° |
| 2026-05-08 06:29 | 41.04646 | -112.33862 | 11903 ft | 327 kts | 51° |
| 2026-05-08 06:29 | 41.05933 | -112.31457 | 11576 ft | 310 kts | 51° |
| 2026-05-08 06:29 | 41.07158 | -112.29180 | 11341 ft | 299 kts | 51° |
| 2026-05-08 06:30 | 41.08358 | -112.26969 | 11118 ft | 291 kts | 51° |
| 2026-05-08 06:30 | 41.09538 | -112.24812 | 10807 ft | 288 kts | 51° |
| 2026-05-08 06:30 | 41.10715 | -112.22667 | 10435 ft | 287 kts | 52° |
| 2026-05-08 06:30 | 41.11555 | -112.20285 | 10128 ft | 285 kts | 74° |
| 2026-05-08 06:31 | 41.11922 | -112.17764 | 9939 ft | 278 kts | 80° |
| 2026-05-08 06:31 | 41.12201 | -112.15263 | 9761 ft | 270 kts | 81° |
| 2026-05-08 06:31 | 41.12468 | -112.12832 | 9573 ft | 262 kts | 81° |
| 2026-05-08 06:31 | 41.12684 | -112.10468 | 9386 ft | 255 kts | 88° |
| 2026-05-08 06:32 | 41.12303 | -112.08237 | 9229 ft | 246 kts | 118° |
| 2026-05-08 06:32 | 41.11255 | -112.06521 | 9122 ft | 234 kts | 137° |
| 2026-05-08 06:32 | 41.10061 | -112.05135 | 9020 ft | 222 kts | 140° |
| 2026-05-08 06:32 | 41.08808 | -112.04021 | 8882 ft | 212 kts | 150° |
| 2026-05-08 06:33 | 41.07454 | -112.03280 | 8762 ft | 210 kts | 165° |
| 2026-05-08 06:33 | 41.06023 | -112.02927 | 8635 ft | 209 kts | 174° |
| 2026-05-08 06:33 | 41.04584 | -112.02735 | 8509 ft | 208 kts | 175° |
| 2026-05-08 06:33 | 41.03140 | -112.02563 | 8384 ft | 208 kts | 175° |
| 2026-05-08 06:34 | 41.01713 | -112.02395 | 8260 ft | 208 kts | 175° |
| 2026-05-08 06:34 | 41.00274 | -112.02217 | 8048 ft | 207 kts | 175° |
| 2026-05-08 06:34 | 40.98846 | -112.02040 | 7774 ft | 206 kts | 175° |
| 2026-05-08 06:34 | 40.97415 | -112.01874 | 7488 ft | 205 kts | 175° |
| 2026-05-08 06:35 | 40.95995 | -112.01709 | 7208 ft | 204 kts | 175° |
| 2026-05-08 06:35 | 40.94580 | -112.01541 | 6935 ft | 203 kts | 175° |
| 2026-05-08 06:35 | 40.93173 | -112.01377 | 6662 ft | 202 kts | 175° |
| 2026-05-08 06:35 | 40.91796 | -112.01217 | 6404 ft | 200 kts | 175° |
| 2026-05-08 06:36 | 40.90417 | -112.01054 | 6130 ft | 197 kts | 175° |
| 2026-05-08 06:36 | 40.89069 | -112.00898 | 5877 ft | 189 kts | 175° |
| 2026-05-08 06:36 | 40.87798 | -112.00748 | 5625 ft | 178 kts | 175° |
| 2026-05-08 06:36 | 40.86599 | -112.00608 | 5390 ft | 168 kts | 174° |
| 2026-05-08 06:37 | 40.85467 | -112.00476 | 5178 ft | 159 kts | 174° |
| 2026-05-08 06:37 | 40.84393 | -112.00351 | 4970 ft | 151 kts | 174° |
| 2026-05-08 06:37 | 40.83356 | -112.00229 | 4778 ft | 150 kts | 174° |
| 2026-05-08 06:37 | 40.82325 | -112.00120 | 4526 ft | 149 kts | 175° |
| 2026-05-08 06:38 | 40.81288 | -111.99995 | 4342 ft | 149 kts | 174° |
| 2026-05-08 06:38 | 40.80248 | -111.99872 | 4246 ft | 146 kts | 174° |
| 2026-05-08 06:38 | 40.79378 | -111.99769 | 4237 ft | 84 kts | 175° |
| 2026-05-08 06:38 | 40.79043 | -111.99729 | 4240 ft | 33 kts | 175° |
| 2026-05-08 06:39 | 40.78902 | -111.99703 | 4240 ft | 28 kts | 164° |
| 2026-05-08 06:39 | 40.78733 | -111.99554 | 4238 ft | 15 kts | 130° |
| 2026-05-08 06:39 | 40.78716 | -111.99441 | 4238 ft | 13 kts | 86° |
| 2026-05-08 06:39 | 40.78722 | -111.99313 | 4238 ft | 15 kts | 87° |
| 2026-05-08 06:40 | 40.78727 | -111.99181 | 4237 ft | 14 kts | 85° |
| 2026-05-08 06:40 | 40.78733 | -111.99099 | 4237 ft | 13 kts | 84° |
| 2026-05-08 06:40 | 40.78742 | -111.98972 | 4236 ft | 14 kts | 84° |
| 2026-05-08 06:40 | 40.78752 | -111.98822 | 4237 ft | 11 kts | 84° |
| 2026-05-08 06:41 | 40.78757 | -111.98755 | 4237 ft | 11 kts | 84° |
| 2026-05-08 06:41 | 40.78763 | -111.98664 | 4237 ft | 9 kts | 86° |
| 2026-05-08 06:41 | 40.78730 | -111.98619 | 4236 ft | 7 kts | 163° |
| 2026-05-08 06:41 | 40.78683 | -111.98614 | 4237 ft | 7 kts | 175° |
| 2026-05-08 06:42 | 40.78654 | -111.98611 | 4237 ft | 3 kts | 175° |
| 2026-05-08 06:42 | 40.78638 | -111.98610 | 4237 ft | 2 kts | 175° |
| 2026-05-08 06:42 | 40.78632 | -111.98609 | 4237 ft | 0 kts | 175° |